Time;durP1;ratioP1;P1;durP2;ratioP2;P2;SDS_P1;SDS_P2;PMS_P1;PMS_P2;Temp;Humidity;BMP_temperature;BMP_pressure;BME280_temperature;BME280_humidity;BME280_pressure;Samples;Min_cycle;Max_cycle;Signal;HPM_P1;HPM_P2
2023/03/20 00:00:36;;;;;;;31.95;14.75;;;8.40;99.90;;;;;;5020044;28;20056;-91
2023/03/20 00:03:02;;;;;;;28.85;14.30;;;8.40;99.90;;;;;;5038680;28;20029;-93
2023/03/20 00:05:30;;;;;;;18.20;9.30;;;8.40;99.90;;;;;;5028172;28;20041;-94
2023/03/20 00:07:56;;;;;;;17.83;8.93;;;8.40;99.90;;;;;;5023939;28;20333;-92
2023/03/20 00:10:29;;;;;;;21.83;10.93;;;8.40;99.90;;;;;;5024452;28;20111;-92
2023/03/20 00:12:59;;;;;;;26.33;13.48;;;8.40;99.90;;;;;;5026870;28;20025;-93
2023/03/20 00:15:35;;;;;;;33.00;14.30;;;8.30;99.90;;;;;;5027911;28;20021;-93
2023/03/20 00:18:02;;;;;;;28.85;14.35;;;8.30;99.90;;;;;;5027653;28;20091;-93
2023/03/20 00:20:28;;;;;;;27.83;14.20;;;8.30;99.90;;;;;;5038793;28;20532;-94
2023/03/20 00:22:54;;;;;;;21.25;10.48;;;8.30;99.90;;;;;;5021352;28;20038;-91
2023/03/20 00:25:25;;;;;;;26.90;11.70;;;8.30;99.90;;;;;;5027975;28;20029;-92
2023/03/20 00:27:51;;;;;;;23.77;11.68;;;8.20;99.90;;;;;;5037066;28;20047;-93
2023/03/20 00:30:21;;;;;;;24.85;10.68;;;8.20;99.90;;;;;;5034218;28;20120;-91
2023/03/20 00:32:50;;;;;;;20.73;10.82;;;8.20;99.90;;;;;;5028786;28;20117;-93
2023/03/20 00:35:27;;;;;;;22.52;11.82;;;8.30;99.90;;;;;;5011540;28;20492;-92
2023/03/20 00:37:57;;;;;;;22.27;11.23;;;8.20;99.90;;;;;;5038254;28;20031;-92
2023/03/20 00:40:31;;;;;;;22.33;11.45;;;8.20;99.90;;;;;;5022143;28;20029;-95
2023/03/20 00:43:01;;;;;;;23.42;11.68;;;8.30;99.90;;;;;;5029813;28;20091;-93
2023/03/20 00:45:30;;;;;;;20.10;10.88;;;8.20;99.90;;;;;;5036055;28;20406;-92
2023/03/20 00:47:57;;;;;;;20.92;9.73;;;8.20;99.90;;;;;;5020364;28;20095;-93
2023/03/20 00:50:34;;;;;;;19.85;9.73;;;8.30;99.90;;;;;;5012647;28;20025;-94
2023/03/20 00:53:05;;;;;;;14.35;7.28;;;8.20;99.90;;;;;;5024588;28;20029;-94
2023/03/20 00:55:36;;;;;;;12.85;6.90;;;8.30;99.90;;;;;;5025753;28;20025;-93
2023/03/20 00:58:03;;;;;;;15.48;8.23;;;8.30;99.90;;;;;;5015204;28;20504;-93
2023/03/20 01:00:47;;;;;;;12.88;6.78;;;8.30;99.90;;;;;;5023301;28;20552;-94
2023/03/20 01:03:19;;;;;;;20.05;12.10;;;8.30;99.90;;;;;;5037007;28;20394;-92
2023/03/20 01:05:47;;;;;;;21.02;11.15;;;8.30;99.90;;;;;;5036046;28;20474;-93
2023/03/20 01:08:19;;;;;;;17.92;9.88;;;8.30;99.90;;;;;;5018819;28;20064;-92
2023/03/20 01:10:46;;;;;;;17.25;9.27;;;8.30;99.90;;;;;;5033453;28;20025;-92
2023/03/20 01:13:23;;;;;;;19.20;10.43;;;8.30;99.90;;;;;;5009977;28;20029;-95
2023/03/20 01:15:50;;;;;;;15.20;8.63;;;8.20;99.90;;;;;;5009376;28;20093;-92
2023/03/20 01:18:17;;;;;;;13.90;7.72;;;8.20;99.90;;;;;;5021576;28;20500;-92
2023/03/20 01:20:43;;;;;;;13.55;8.55;;;8.20;99.90;;;;;;5023760;28;20021;-93
2023/03/20 01:23:09;;;;;;;14.20;8.07;;;8.20;99.90;;;;;;5026747;28;20029;-92
2023/03/20 01:25:36;;;;;;;16.80;9.55;;;8.20;99.90;;;;;;5020636;28;20507;-91
2023/03/20 01:28:10;;;;;;;20.83;10.60;;;8.20;99.90;;;;;;5022477;28;20044;-90
2023/03/20 01:30:36;;;;;;;19.80;10.35;;;8.20;99.90;;;;;;5015939;28;20026;-94
2023/03/20 01:33:11;;;;;;;16.15;9.57;;;8.20;99.90;;;;;;5013258;28;20021;-90
2023/03/20 01:35:38;;;;;;;16.30;9.75;;;8.20;99.90;;;;;;5023368;28;20180;-92
2023/03/20 01:38:20;;;;;;;20.80;10.45;;;8.20;99.90;;;;;;5017412;28;20032;-92
2023/03/20 01:40:58;;;;;;;22.75;11.13;;;8.20;99.90;;;;;;5018207;28;20021;-92
2023/03/20 01:43:27;;;;;;;23.60;13.70;;;8.20;99.90;;;;;;5021620;28;20037;-89
2023/03/20 01:46:18;;;;;;;19.50;12.38;;;8.20;99.90;;;;;;5026043;28;20034;-93
2023/03/20 01:48:50;;;;;;;20.73;12.02;;;8.20;99.90;;;;;;5030729;28;20025;-93
2023/03/20 01:51:22;;;;;;;24.48;14.07;;;8.20;99.90;;;;;;5032847;28;20024;-93
2023/03/20 01:54:07;;;;;;;27.10;15.85;;;8.20;99.90;;;;;;5022259;28;20033;-91
2023/03/20 01:56:42;;;;;;;23.67;13.93;;;8.20;99.90;;;;;;5011845;28;20042;-93
2023/03/20 01:59:35;;;;;;;22.08;13.68;;;8.20;99.90;;;;;;5027049;28;20029;-92
2023/03/20 02:02:03;;;;;;;24.75;13.10;;;8.20;99.90;;;;;;5020560;28;20029;-93
2023/03/20 02:04:33;;;;;;;20.60;12.55;;;8.20;99.90;;;;;;5028423;28;20026;-91
2023/03/20 02:07:07;;;;;;;22.13;11.90;;;8.10;99.90;;;;;;5028481;28;20068;-93
2023/03/20 02:09:43;;;;;;;23.88;12.20;;;8.10;99.90;;;;;;5029327;28;20537;-91
2023/03/20 02:12:16;;;;;;;24.77;13.40;;;8.10;99.90;;;;;;5023407;28;20026;-94
2023/03/20 02:14:46;;;;;;;19.05;11.38;;;8.10;99.90;;;;;;5030137;28;20021;-93
2023/03/20 02:17:43;;;;;;;21.55;11.40;;;8.10;99.90;;;;;;5026848;28;20183;-92
2023/03/20 02:20:19;;;;;;;20.88;11.80;;;8.10;99.90;;;;;;5018676;28;20156;-92
2023/03/20 02:22:57;;;;;;;18.50;10.90;;;8.10;99.90;;;;;;5014455;28;20052;-93
2023/03/20 02:25:46;;;;;;;20.27;10.60;;;8.10;99.90;;;;;;5019793;28;20124;-91
2023/03/20 02:28:47;;;;;;;17.77;10.93;;;8.10;99.90;;;;;;5020465;28;20033;-92
2023/03/20 02:31:26;;;;;;;18.90;10.52;;;8.10;99.90;;;;;;4984535;28;20030;-91
2023/03/20 02:34:32;;;;;;;19.88;11.18;;;8.00;99.90;;;;;;5011640;28;20044;-91
2023/03/20 02:37:19;;;;;;;22.67;12.15;;;8.10;99.90;;;;;;4977411;28;20103;-91
2023/03/20 02:40:05;;;;;;;18.02;9.88;;;8.00;99.90;;;;;;4979123;28;20042;-92
2023/03/20 02:42:45;;;;;;;21.00;11.48;;;8.00;99.90;;;;;;4981983;28;20050;-91
2023/03/20 02:45:21;;;;;;;17.73;9.35;;;8.00;99.90;;;;;;4980650;28;20088;-90
2023/03/20 02:48:18;;;;;;;21.83;10.70;;;8.00;99.90;;;;;;4978170;28;20114;-91
2023/03/20 02:50:50;;;;;;;24.42;11.40;;;8.00;99.90;;;;;;4978240;28;20039;-92
2023/03/20 02:53:50;;;;;;;16.50;8.90;;;8.00;99.90;;;;;;4981694;28;20081;-90
2023/03/20 02:56:28;;;;;;;14.52;9.00;;;8.00;99.90;;;;;;4964424;28;20030;-90
2023/03/20 02:59:01;;;;;;;15.90;9.02;;;7.90;99.90;;;;;;4975998;28;20488;-90
2023/03/20 03:01:46;;;;;;;19.33;9.20;;;7.90;99.90;;;;;;4947997;28;20066;-92
2023/03/20 03:04:17;;;;;;;20.50;8.35;;;7.90;99.90;;;;;;4944113;28;20030;-91
2023/03/20 03:06:46;;;;;;;14.50;7.60;;;7.90;99.90;;;;;;4963590;28;20049;-92
2023/03/20 03:09:21;;;;;;;16.60;7.90;;;7.90;99.90;;;;;;4977054;28;20121;-90
2023/03/20 03:12:02;;;;;;;16.52;7.07;;;7.80;99.90;;;;;;5040228;28;20030;-92
2023/03/20 03:14:39;;;;;;;17.00;6.82;;;7.90;99.90;;;;;;5028667;28;20029;-92
2023/03/20 03:17:11;;;;;;;18.35;6.43;;;7.90;99.90;;;;;;5021972;28;20021;-93
2023/03/20 03:19:40;;;;;;;15.43;5.63;;;7.90;99.90;;;;;;5036973;28;20032;-91
2023/03/20 03:22:09;;;;;;;10.00;5.05;;;7.80;99.90;;;;;;5013956;28;20025;-92
2023/03/20 03:24:37;;;;;;;11.55;4.57;;;7.80;99.90;;;;;;5022997;28;20393;-91
2023/03/20 03:27:18;;;;;;;8.60;4.20;;;7.80;99.90;;;;;;5019211;28;20406;-94
2023/03/20 03:29:51;;;;;;;4.75;2.85;;;7.80;99.90;;;;;;5011543;28;20033;-92
2023/03/20 03:32:45;;;;;;;7.18;3.15;;;7.80;99.90;;;;;;5020501;28;20064;-93
2023/03/20 03:35:16;;;;;;;7.93;3.17;;;7.80;99.90;;;;;;5009954;28;20045;-94
2023/03/20 03:37:55;;;;;;;7.07;2.33;;;7.80;99.90;;;;;;5027786;28;20033;-93
2023/03/20 03:40:30;;;;;;;5.20;1.98;;;7.80;99.90;;;;;;5044940;28;20030;-93
2023/03/20 03:43:13;;;;;;;4.82;1.55;;;7.80;99.90;;;;;;5024796;28;20390;-91
2023/03/20 03:46:11;;;;;;;3.40;1.10;;;7.80;99.90;;;;;;5025815;28;20075;-92
2023/03/20 03:48:44;;;;;;;4.38;1.23;;;7.70;99.90;;;;;;5036422;28;20045;-93
2023/03/20 03:51:19;;;;;;;3.67;1.15;;;7.70;99.90;;;;;;5030269;28;20440;-93
2023/03/20 03:54:32;;;;;;;4.40;1.27;;;7.70;99.90;;;;;;5026664;28;20061;-93
2023/03/20 03:57:24;;;;;;;2.85;0.90;;;7.70;99.90;;;;;;5033608;28;20501;-93
2023/03/20 03:59:51;;;;;;;4.53;1.15;;;7.60;99.90;;;;;;5047332;28;20513;-93
2023/03/20 04:02:19;;;;;;;4.28;1.35;;;7.60;99.90;;;;;;5011717;28;20029;-93
2023/03/20 04:04:49;;;;;;;5.10;1.75;;;7.60;99.90;;;;;;5008869;28;20021;-94
2023/03/20 04:07:15;;;;;;;5.97;1.88;;;7.60;99.90;;;;;;5030275;28;20436;-93
2023/03/20 04:09:42;;;;;;;5.57;1.55;;;7.50;99.90;;;;;;5034844;28;20077;-89
2023/03/20 04:12:38;;;;;;;6.65;1.63;;;7.50;99.90;;;;;;5028969;28;20021;-91
2023/03/20 04:15:08;;;;;;;4.47;1.48;;;7.50;99.90;;;;;;5034310;28;20033;-90
2023/03/20 04:17:37;;;;;;;5.88;2.13;;;7.50;99.90;;;;;;5023108;28;20048;-90
2023/03/20 04:20:04;;;;;;;4.93;1.42;;;7.50;99.90;;;;;;5018580;28;20064;-91
2023/03/20 04:22:33;;;;;;;4.10;1.63;;;7.40;99.90;;;;;;5022023;28;20029;-90
2023/03/20 04:25:07;;;;;;;4.07;1.63;;;7.40;99.90;;;;;;5020952;28;20028;-89
2023/03/20 04:27:33;;;;;;;5.75;2.10;;;7.40;99.90;;;;;;5017079;28;20553;-91
2023/03/20 04:30:01;;;;;;;9.82;4.18;;;7.30;99.90;;;;;;5007342;28;20026;-91
2023/03/20 04:32:45;;;;;;;7.97;4.30;;;7.30;99.90;;;;;;5036494;28;20056;-92
2023/03/20 04:35:37;;;;;;;11.48;4.82;;;7.30;99.90;;;;;;5036497;28;20120;-91
2023/03/20 04:38:10;;;;;;;12.75;5.35;;;7.30;99.90;;;;;;5024688;28;20434;-93
2023/03/20 04:40:36;;;;;;;11.82;5.88;;;7.20;99.90;;;;;;5029791;28;20410;-92
2023/03/20 04:43:02;;;;;;;9.13;5.10;;;7.20;99.90;;;;;;5021402;28;20426;-91
2023/03/20 04:45:28;;;;;;;12.57;6.28;;;7.20;99.90;;;;;;5029270;28;20025;-91
2023/03/20 04:47:53;;;;;;;10.07;5.15;;;7.10;99.90;;;;;;5023020;28;20385;-91
2023/03/20 04:50:21;;;;;;;11.27;5.53;;;7.10;99.90;;;;;;5021771;28;20028;-91
2023/03/20 04:52:49;;;;;;;12.07;5.50;;;7.10;99.90;;;;;;5020933;28;20029;-92
2023/03/20 04:55:15;;;;;;;11.23;5.57;;;7.10;99.90;;;;;;5047044;28;20440;-93
2023/03/20 04:57:41;;;;;;;16.23;6.93;;;7.10;99.90;;;;;;5024236;28;20133;-91
2023/03/20 05:00:10;;;;;;;14.20;7.65;;;7.00;99.90;;;;;;5020332;28;20087;-93
2023/03/20 05:02:36;;;;;;;16.13;7.38;;;7.00;99.90;;;;;;5004732;28;20037;-92
2023/03/20 05:05:02;;;;;;;12.75;6.88;;;7.00;99.90;;;;;;5018495;28;20025;-93
2023/03/20 05:07:28;;;;;;;17.15;8.38;;;7.00;99.90;;;;;;5007878;28;20261;-91
2023/03/20 05:10:04;;;;;;;14.20;7.97;;;7.00;99.90;;;;;;5014780;28;20032;-94
2023/03/20 05:12:34;;;;;;;14.88;7.40;;;7.00;99.90;;;;;;5014364;28;20025;-90
2023/03/20 05:15:29;;;;;;;16.77;7.30;;;7.00;99.90;;;;;;5022734;28;20045;-91
2023/03/20 05:18:17;;;;;;;14.23;7.40;;;6.90;99.90;;;;;;5021879;28;20022;-94
2023/03/20 05:20:43;;;;;;;13.75;6.78;;;6.90;99.90;;;;;;5027793;28;20037;-92
2023/03/20 05:23:38;;;;;;;15.43;7.10;;;6.90;99.90;;;;;;4983239;28;20038;-93
2023/03/20 05:26:22;;;;;;;11.63;5.93;;;6.90;99.90;;;;;;4975370;28;20144;-93
2023/03/20 05:29:02;;;;;;;15.20;7.45;;;6.90;99.90;;;;;;4986489;28;20073;-89
2023/03/20 05:31:34;;;;;;;13.43;6.38;;;6.90;99.90;;;;;;4986163;28;20034;-93
2023/03/20 05:34:26;;;;;;;13.70;7.00;;;6.90;99.90;;;;;;4977202;28;20030;-92
2023/03/20 05:37:17;;;;;;;11.68;5.68;;;6.80;99.90;;;;;;4975984;28;20034;-91
2023/03/20 05:40:02;;;;;;;10.63;5.40;;;6.90;99.90;;;;;;4981150;28;20048;-92
2023/03/20 05:42:47;;;;;;;10.80;4.68;;;6.90;99.90;;;;;;4977421;28;20093;-92
2023/03/20 05:45:25;;;;;;;11.20;5.45;;;6.90;99.90;;;;;;4964855;28;20058;-89
2023/03/20 05:48:09;;;;;;;11.05;4.63;;;6.80;99.90;;;;;;4978313;28;20410;-92
2023/03/20 05:50:38;;;;;;;9.88;4.32;;;6.80;99.90;;;;;;4981710;28;20038;-90
2023/03/20 05:53:09;;;;;;;10.52;4.93;;;6.80;99.90;;;;;;4972280;28;20034;-93
2023/03/20 05:56:05;;;;;;;11.18;5.88;;;6.80;99.90;;;;;;4983307;28;20030;-90
2023/03/20 05:58:58;;;;;;;11.95;5.20;;;6.80;99.90;;;;;;4964210;28;20046;-90
2023/03/20 06:01:44;;;;;;;10.30;5.00;;;6.80;99.90;;;;;;5033693;28;20025;-89
2023/03/20 06:04:20;;;;;;;9.65;4.50;;;6.90;99.90;;;;;;5020953;28;20032;-92
2023/03/20 06:07:24;;;;;;;11.27;4.55;;;6.90;99.90;;;;;;5026449;28;20037;-90
2023/03/20 06:10:03;;;;;;;12.40;4.97;;;6.90;99.90;;;;;;5043174;28;20022;-91
2023/03/20 06:12:30;;;;;;;10.85;4.22;;;6.90;99.90;;;;;;5025152;28;20049;-87
2023/03/20 06:14:55;;;;;;;13.20;7.30;;;6.90;99.90;;;;;;5021704;28;20034;-94
2023/03/20 06:17:22;;;;;;;14.45;6.60;;;6.90;99.90;;;;;;5027715;28;20036;-92
2023/03/20 06:19:54;;;;;;;10.95;5.97;;;6.90;99.90;;;;;;5044842;28;20597;-90
2023/03/20 06:22:21;;;;;;;11.07;5.32;;;6.90;99.90;;;;;;5018283;28;20418;-95
2023/03/20 06:24:49;;;;;;;10.25;5.43;;;7.00;99.90;;;;;;5012882;28;20025;-90
2023/03/20 06:27:15;;;;;;;11.85;5.00;;;7.00;99.90;;;;;;5021134;28;20040;-92
2023/03/20 06:29:41;;;;;;;12.70;5.65;;;7.00;99.90;;;;;;5011024;28;20164;-91
2023/03/20 06:32:16;;;;;;;11.05;5.53;;;7.10;99.90;;;;;;5037909;28;20029;-93
2023/03/20 06:34:42;;;;;;;11.75;5.07;;;7.10;99.90;;;;;;5041344;28;20018;-89
2023/03/20 06:37:08;;;;;;;10.57;4.90;;;7.10;99.90;;;;;;5026325;28;20047;-88
2023/03/20 06:39:35;;;;;;;9.13;4.65;;;7.20;99.90;;;;;;5025294;28;20083;-92
2023/03/20 06:42:01;;;;;;;12.80;6.97;;;7.20;99.90;;;;;;5015896;28;20061;-93
2023/03/20 06:44:27;;;;;;;13.07;7.03;;;7.30;99.90;;;;;;5023454;28;20026;-91
2023/03/20 06:47:05;;;;;;;12.90;5.95;;;7.30;99.90;;;;;;5038618;28;20390;-93
2023/03/20 06:49:31;;;;;;;14.73;7.25;;;7.40;99.90;;;;;;5020878;28;20030;-93
2023/03/20 06:51:58;;;;;;;9.45;5.22;;;7.50;99.90;;;;;;5024057;28;20028;-90
2023/03/20 06:54:25;;;;;;;12.57;5.57;;;7.50;99.90;;;;;;5047574;28;20116;-89
2023/03/20 06:56:51;;;;;;;14.98;6.65;;;7.60;99.90;;;;;;5022593;28;20551;-87
2023/03/20 06:59:17;;;;;;;13.60;5.90;;;7.60;99.90;;;;;;5021413;28;20120;-93
2023/03/20 07:01:44;;;;;;;12.90;5.07;;;7.60;99.90;;;;;;5045364;28;20521;-91
2023/03/20 07:04:13;;;;;;;13.30;6.38;;;7.70;99.90;;;;;;5024460;28;20036;-92
2023/03/20 07:06:47;;;;;;;14.82;6.57;;;7.60;99.90;;;;;;5035878;28;20040;-91
2023/03/20 07:09:13;;;;;;;10.73;5.80;;;7.60;99.90;;;;;;5008196;28;20032;-91
2023/03/20 07:11:39;;;;;;;13.43;6.50;;;7.60;99.90;;;;;;5007247;28;20528;-90
2023/03/20 07:14:05;;;;;;;13.13;6.55;;;7.60;99.90;;;;;;5007151;28;20033;-92
2023/03/20 07:16:44;;;;;;;11.25;5.93;;;7.60;99.90;;;;;;5032575;28;20365;-93
2023/03/20 07:19:12;;;;;;;11.10;5.22;;;7.70;99.90;;;;;;5014359;28;20037;-91
2023/03/20 07:21:43;;;;;;;13.68;5.38;;;7.60;99.90;;;;;;5020880;28;20128;-89
2023/03/20 07:24:09;;;;;;;16.58;6.50;;;7.70;99.90;;;;;;5032896;28;20034;-90
2023/03/20 07:26:35;;;;;;;15.05;6.35;;;7.70;99.90;;;;;;5022819;28;20037;-91
2023/03/20 07:29:04;;;;;;;9.27;5.18;;;7.70;99.90;;;;;;5026410;28;20166;-91
2023/03/20 07:31:31;;;;;;;10.30;4.75;;;7.70;99.90;;;;;;5022322;28;20032;-91
2023/03/20 07:34:22;;;;;;;9.63;4.78;;;7.70;99.90;;;;;;5034861;28;20030;-91
2023/03/20 07:36:49;;;;;;;10.70;4.82;;;7.80;99.90;;;;;;5010743;28;20025;-91
2023/03/20 07:39:18;;;;;;;10.13;5.53;;;7.80;99.90;;;;;;5024029;28;20064;-91
2023/03/20 07:41:53;;;;;;;10.57;4.45;;;7.90;99.90;;;;;;5021546;28;20052;-92
2023/03/20 07:44:34;;;;;;;10.57;4.97;;;8.00;99.90;;;;;;5020517;28;20036;-91
2023/03/20 07:47:07;;;;;;;11.40;5.53;;;8.00;99.90;;;;;;5024032;28;20037;-92
2023/03/20 07:49:33;;;;;;;11.95;4.45;;;7.90;99.90;;;;;;5019732;28;20037;-90
2023/03/20 07:51:59;;;;;;;10.25;5.13;;;7.90;99.90;;;;;;5013759;28;20033;-92
2023/03/20 07:54:27;;;;;;;9.73;3.55;;;7.90;99.90;;;;;;5022163;28;20044;-92
2023/03/20 07:56:53;;;;;;;7.28;3.67;;;7.80;99.90;;;;;;5026499;28;20068;-91
2023/03/20 07:59:18;;;;;;;9.73;3.90;;;8.00;99.90;;;;;;5027319;28;20435;-91
2023/03/20 08:01:44;;;;;;;8.57;3.70;;;7.90;99.90;;;;;;5005876;28;20093;-91
2023/03/20 08:04:18;;;;;;;7.63;3.33;;;8.00;99.90;;;;;;5014080;28;20025;-91
2023/03/20 08:07:05;;;;;;;7.43;3.15;;;8.00;99.90;;;;;;5032362;28;20050;-92
2023/03/20 08:09:39;;;;;;;9.60;3.80;;;8.00;99.90;;;;;;5023786;28;20103;-91
2023/03/20 08:12:05;;;;;;;6.28;2.47;;;8.00;99.90;;;;;;5007634;28;20163;-94
2023/03/20 08:14:31;;;;;;;8.82;3.58;;;8.10;99.90;;;;;;5009224;28;20440;-90
2023/03/20 08:16:57;;;;;;;7.63;3.00;;;8.00;99.90;;;;;;5036777;28;20037;-91
2023/03/20 08:19:38;;;;;;;9.63;4.10;;;8.10;99.90;;;;;;5020367;28;20090;-90
2023/03/20 08:22:04;;;;;;;8.43;3.35;;;8.10;99.90;;;;;;5012246;28;20024;-92
2023/03/20 08:24:30;;;;;;;9.32;3.17;;;8.20;99.90;;;;;;5011968;28;20402;-91
2023/03/20 08:26:56;;;;;;;6.95;2.80;;;8.20;99.90;;;;;;5011074;28;20367;-92
2023/03/20 08:29:21;;;;;;;6.30;3.25;;;8.30;99.90;;;;;;5021156;28;20029;-94
2023/03/20 08:31:47;;;;;;;7.03;2.33;;;8.10;99.90;;;;;;5007428;28;20025;-92
2023/03/20 08:34:13;;;;;;;10.35;3.10;;;8.20;99.90;;;;;;5012076;28;20045;-91
2023/03/20 08:36:38;;;;;;;7.97;3.35;;;8.20;99.90;;;;;;5020450;28;20082;-91
2023/03/20 08:39:05;;;;;;;11.50;3.60;;;8.20;99.90;;;;;;5037541;28;20311;-92
2023/03/20 08:41:32;;;;;;;6.82;2.78;;;8.20;99.90;;;;;;5021329;28;20029;-95
2023/03/20 08:43:58;;;;;;;5.82;2.47;;;8.30;99.90;;;;;;5007996;28;20116;-88
2023/03/20 08:46:31;;;;;;;4.32;2.10;;;8.30;99.90;;;;;;5040709;28;20048;-92
2023/03/20 08:48:57;;;;;;;6.03;2.17;;;8.30;99.90;;;;;;5036068;28;20029;-93
2023/03/20 08:51:24;;;;;;;10.07;4.10;;;8.30;99.90;;;;;;5037110;28;20029;-91
2023/03/20 08:53:50;;;;;;;8.57;3.28;;;8.30;99.90;;;;;;5017643;28;20545;-90
2023/03/20 08:56:15;;;;;;;8.23;2.75;;;8.30;99.90;;;;;;5019737;28;20037;-90
2023/03/20 08:58:41;;;;;;;5.28;2.45;;;8.30;99.90;;;;;;5017632;28;20049;-93
2023/03/20 09:01:08;;;;;;;9.02;3.17;;;8.40;99.90;;;;;;5039412;28;20104;-91
2023/03/20 09:03:35;;;;;;;7.93;3.33;;;8.40;99.90;;;;;;5036089;28;20032;-89
2023/03/20 09:06:04;;;;;;;7.93;2.40;;;8.30;99.90;;;;;;5021039;28;20056;-89
2023/03/20 09:08:30;;;;;;;9.57;3.10;;;8.40;99.90;;;;;;5019781;28;20091;-90
2023/03/20 09:10:56;;;;;;;9.23;3.08;;;8.50;99.90;;;;;;5019487;28;20105;-90
2023/03/20 09:13:22;;;;;;;6.18;2.53;;;8.60;99.90;;;;;;5045536;28;20040;-89
2023/03/20 09:15:48;;;;;;;6.97;2.97;;;8.60;99.90;;;;;;5017038;28;20453;-91
2023/03/20 09:18:14;;;;;;;9.05;3.30;;;8.70;99.90;;;;;;5022520;28;20409;-91
2023/03/20 09:20:42;;;;;;;5.50;2.00;;;8.60;99.90;;;;;;5020602;28;20044;-88
2023/03/20 09:23:07;;;;;;;10.88;3.72;;;8.80;99.90;;;;;;5015708;28;20120;-92
2023/03/20 09:25:33;;;;;;;5.55;2.25;;;8.70;99.90;;;;;;5020934;28;20557;-92
2023/03/20 09:27:59;;;;;;;6.03;2.72;;;8.80;99.90;;;;;;5011294;28;20620;-92
2023/03/20 09:30:24;;;;;;;6.40;1.85;;;8.80;99.90;;;;;;5010975;28;20026;-91
2023/03/20 09:32:51;;;;;;;5.07;1.63;;;8.90;99.90;;;;;;5024633;28;20053;-92
2023/03/20 09:35:17;;;;;;;6.30;2.22;;;8.90;99.90;;;;;;5006211;28;20556;-92
2023/03/20 09:37:44;;;;;;;7.47;2.38;;;9.00;99.90;;;;;;5021110;28;20029;-88
2023/03/20 09:40:23;;;;;;;5.15;1.73;;;9.00;99.90;;;;;;5042059;28;20018;-92
2023/03/20 09:43:07;;;;;;;8.70;2.47;;;9.00;99.90;;;;;;5014291;28;20397;-90
2023/03/20 09:45:44;;;;;;;6.43;2.35;;;9.00;99.90;;;;;;5021674;28;20033;-89
2023/03/20 09:48:33;;;;;;;13.13;2.70;;;9.10;99.90;;;;;;5017137;28;20044;-93
2023/03/20 09:51:36;;;;;;;5.75;1.92;;;9.10;99.90;;;;;;5026469;28;20029;-91
2023/03/20 09:54:34;;;;;;;6.43;2.30;;;9.10;99.90;;;;;;5023236;28;20030;-89
2023/03/20 09:57:01;;;;;;;7.18;2.15;;;9.20;99.90;;;;;;5008325;28;20496;-92
2023/03/20 09:59:28;;;;;;;4.88;1.50;;;9.30;99.90;;;;;;5008330;28;20029;-93
2023/03/20 10:02:23;;;;;;;5.07;1.50;;;9.40;99.90;;;;;;5022435;28;20033;-91
2023/03/20 10:04:53;;;;;;;5.57;1.95;;;9.40;99.90;;;;;;5025983;28;20104;-92
2023/03/20 10:07:19;;;;;;;8.48;2.38;;;9.50;99.90;;;;;;5018967;28;20080;-91
2023/03/20 10:09:45;;;;;;;6.43;2.30;;;9.60;99.90;;;;;;5022816;28;20037;-91
2023/03/20 10:12:55;;;;;;;6.50;1.98;;;9.60;99.90;;;;;;5021016;28;20485;-91
2023/03/20 10:15:42;;;;;;;6.03;2.72;;;9.50;99.90;;;;;;5006046;28;20048;-91
2023/03/20 10:18:28;;;;;;;7.55;2.30;;;9.60;99.90;;;;;;5015048;28;20040;-93
2023/03/20 10:21:18;;;;;;;6.05;1.80;;;9.50;99.90;;;;;;5027803;28;20029;-92
2023/03/20 10:24:04;;;;;;;8.38;2.42;;;9.40;99.90;;;;;;5020830;28;20144;-91
2023/03/20 10:26:34;;;;;;;8.30;2.53;;;9.40;99.90;;;;;;5019742;28;20128;-89
2023/03/20 10:29:05;;;;;;;5.75;1.92;;;9.50;99.90;;;;;;5018726;28;20116;-92
2023/03/20 10:31:49;;;;;;;6.30;1.60;;;9.60;99.90;;;;;;5037220;28;20123;-93
2023/03/20 10:34:21;;;;;;;10.15;2.35;;;9.70;99.90;;;;;;5026248;28;20025;-92
2023/03/20 10:37:08;;;;;;;9.70;2.95;;;9.50;99.90;;;;;;5016552;28;20076;-91
2023/03/20 10:39:49;;;;;;;6.57;1.92;;;9.80;99.90;;;;;;5021230;28;20045;-94
2023/03/20 10:42:26;;;;;;;5.75;1.70;;;9.80;99.90;;;;;;5041105;28;20021;-89
2023/03/20 10:45:01;;;;;;;8.90;2.42;;;9.90;99.90;;;;;;5018370;28;20017;-91
2023/03/20 10:47:32;;;;;;;8.93;2.75;;;9.70;99.90;;;;;;5018020;28;20045;-91
2023/03/20 10:50:02;;;;;;;8.98;1.90;;;9.80;99.90;;;;;;5016913;28;20105;-92
2023/03/20 10:52:32;;;;;;;5.50;2.15;;;9.60;99.90;;;;;;5017811;28;20073;-90
2023/03/20 10:55:04;;;;;;;9.05;2.40;;;9.50;99.90;;;;;;5019069;28;20029;-90
2023/03/20 10:57:35;;;;;;;6.13;1.80;;;9.60;99.90;;;;;;5011056;28;20144;-92
2023/03/20 11:00:01;;;;;;;5.97;1.92;;;9.70;99.90;;;;;;5035482;28;20065;-91
2023/03/20 11:02:29;;;;;;;6.30;1.83;;;9.60;99.90;;;;;;5040836;28;20116;-90
2023/03/20 11:04:55;;;;;;;6.93;2.05;;;9.50;99.90;;;;;;5018108;28;20385;-90
2023/03/20 11:07:30;;;;;;;4.82;1.42;;;9.50;99.90;;;;;;5043616;28;20132;-88
2023/03/20 11:10:05;;;;;;;5.93;1.90;;;9.80;99.90;;;;;;5023965;28;20024;-90
2023/03/20 11:12:35;;;;;;;6.03;1.60;;;9.40;99.90;;;;;;5028984;28;20060;-91
2023/03/20 11:15:14;;;;;;;4.78;1.20;;;9.50;99.90;;;;;;5051122;28;20037;-89
2023/03/20 11:17:40;;;;;;;4.18;1.33;;;9.60;99.90;;;;;;5017899;28;20505;-87
2023/03/20 11:20:07;;;;;;;5.85;1.35;;;9.70;99.90;;;;;;5021692;28;20017;-92
2023/03/20 11:22:40;;;;;;;5.20;1.60;;;9.60;99.90;;;;;;5022038;28;20035;-93
2023/03/20 11:25:19;;;;;;;5.03;1.42;;;9.50;99.90;;;;;;5023286;28;20025;-93
2023/03/20 11:27:45;;;;;;;3.13;1.02;;;9.50;99.90;;;;;;5024227;28;20378;-91
2023/03/20 11:30:16;;;;;;;5.93;1.10;;;9.50;99.90;;;;;;5021971;28;20080;-94
2023/03/20 11:32:47;;;;;;;3.00;1.65;;;9.40;99.90;;;;;;5013913;28;20075;-93
2023/03/20 11:35:21;;;;;;;4.28;0.65;;;9.50;99.90;;;;;;5024397;28;20601;-93
2023/03/20 11:37:50;;;;;;;5.55;1.38;;;9.60;99.90;;;;;;5028438;28;20030;-93
2023/03/20 11:40:31;;;;;;;4.40;0.60;;;9.60;99.90;;;;;;5009453;28;20026;-92
2023/03/20 11:43:10;;;;;;;7.18;0.70;;;9.60;99.90;;;;;;5024934;28;20112;-94
2023/03/20 11:45:46;;;;;;;5.57;0.80;;;9.40;99.90;;;;;;5018908;28;20101;-93
2023/03/20 11:48:24;;;;;;;5.32;0.80;;;9.30;99.90;;;;;;5037950;28;20037;-92
2023/03/20 11:51:01;;;;;;;3.45;0.60;;;9.40;99.90;;;;;;5024558;28;20026;-93
2023/03/20 11:53:51;;;;;;;3.38;1.00;;;9.50;99.90;;;;;;5021884;28;20513;-93
2023/03/20 11:56:27;;;;;;;3.00;0.70;;;9.40;99.90;;;;;;5038572;28;20056;-89
2023/03/20 11:58:58;;;;;;;2.05;0.57;;;9.40;99.90;;;;;;5014921;28;20033;-89
2023/03/20 12:01:26;;;;;;;4.43;0.60;;;9.50;99.90;;;;;;5024802;28;20052;-89
2023/03/20 12:04:11;;;;;;;3.28;0.50;;;9.50;99.90;;;;;;5016042;28;20112;-90
2023/03/20 12:06:57;;;;;;;4.88;0.77;;;9.40;99.90;;;;;;5010928;28;20041;-88
2023/03/20 12:09:51;;;;;;;4.10;0.50;;;9.60;99.90;;;;;;5012068;28;20420;-88
2023/03/20 12:12:51;;;;;;;2.45;0.60;;;9.60;99.90;;;;;;5021357;28;20029;-89
2023/03/20 12:15:37;;;;;;;6.70;0.70;;;9.60;99.90;;;;;;5009455;28;20437;-89
2023/03/20 12:18:16;;;;;;;2.13;0.60;;;9.60;99.90;;;;;;5017228;28;20029;-91
2023/03/20 12:20:53;;;;;;;3.53;0.70;;;9.50;99.90;;;;;;5029815;28;20071;-91
2023/03/20 12:23:41;;;;;;;7.22;1.27;;;9.40;99.90;;;;;;5025553;28;20779;-90
2023/03/20 12:26:46;;;;;;;3.75;1.00;;;9.50;99.90;;;;;;5018297;28;20037;-88
2023/03/20 12:29:26;;;;;;;4.53;0.80;;;9.50;99.90;;;;;;5010089;28;20033;-88
2023/03/20 12:32:02;;;;;;;;;;;9.40;99.90;;;;;;5010967;28;20033;-91
2023/03/20 12:34:33;;;;;;;5.88;0.93;;;9.40;99.90;;;;;;5036227;28;19962;-92
2023/03/20 12:36:59;;;;;;;3.08;0.80;;;9.40;99.90;;;;;;5039571;28;20048;-91
2023/03/20 12:39:33;;;;;;;5.03;1.42;;;9.60;99.90;;;;;;5021997;28;20057;-91
2023/03/20 12:42:08;;;;;;;6.20;0.80;;;9.50;99.90;;;;;;5028317;28;20141;-89
2023/03/20 12:44:45;;;;;;;4.95;1.05;;;9.50;99.90;;;;;;5017618;28;20079;-91
2023/03/20 12:47:15;;;;;;;4.03;1.42;;;9.40;99.90;;;;;;5016791;28;20482;-90
2023/03/20 12:50:08;;;;;;;4.28;1.45;;;9.30;99.90;;;;;;5016800;28;20029;-90
2023/03/20 12:52:34;;;;;;;4.80;1.45;;;9.30;99.90;;;;;;5026594;28;20052;-91
2023/03/20 12:55:20;;;;;;;4.63;1.10;;;9.60;99.90;;;;;;5039589;28;20409;-90
2023/03/20 12:58:15;;;;;;;5.35;0.90;;;9.70;99.90;;;;;;5036292;28;20053;-91
2023/03/20 13:00:51;;;;;;;4.25;0.75;;;9.60;99.90;;;;;;5025960;28;20127;-92
2023/03/20 13:03:44;;;;;;;5.43;1.00;;;9.80;99.90;;;;;;5020442;28;20048;-91
2023/03/20 13:06:41;;;;;;;5.15;1.10;;;9.70;99.90;;;;;;5019054;28;20032;-91
2023/03/20 13:09:46;;;;;;;3.90;0.80;;;9.90;99.90;;;;;;5031732;28;20029;-91
2023/03/20 13:12:31;;;;;;;3.65;0.70;;;9.80;99.90;;;;;;5014527;28;20025;-92
2023/03/20 13:15:15;;;;;;;2.45;0.60;;;9.90;99.90;;;;;;5047438;28;20037;-92
2023/03/20 13:17:56;;;;;;;4.10;0.80;;;10.00;99.90;;;;;;5015671;28;20449;-90
2023/03/20 13:20:25;;;;;;;6.65;1.33;;;9.90;99.90;;;;;;5037341;28;20029;-91
2023/03/20 13:23:16;;;;;;;5.05;1.10;;;9.90;99.90;;;;;;5035954;28;20029;-90
2023/03/20 13:25:45;;;;;;;;;;;10.10;99.90;;;;;;5026660;28;20056;-91
2023/03/20 13:28:34;;;;;;;4.95;1.30;;;10.00;99.90;;;;;;5031685;28;19960;-90